Cassville, Missouri
Current Conditions -  °F | °C
As of 2:15 PM on Wednesday 28 Jan 2015 (Local Time) from KHFJ Reporting Station
Clear Clear  
Wind Chill: 70°   Ceiling: Unl
Heat Index: 70°   Visibility: 10mi
Dew Point: 39°   Wind: 20mph
Humidity: 33%   Direction: 200°SSW
Pressure: 29.9"   Gusts: 26mph
Location:  36.68°N, 93.87°W
Report Text: KHFJ 282015Z AUTO 20017G23KT 10SM CLR 21/04 A2990 RMK AO2
Loading
Personal Weather Stations






























Interactive Weather Map New forecast layout! Learn more

10-Day Weather Forecast

Advertisements
Track Severe Weather on mobile